createdAt,value
2022-10-06T00:01:14.823Z,84.70
2022-10-06T00:03:43.743Z,85.00
2022-10-06T00:06:14.981Z,85.20
2022-10-06T00:08:43.574Z,85.80
2022-10-06T00:11:12.286Z,86.70
2022-10-06T00:13:39.771Z,88.30
2022-10-06T00:16:17.475Z,87.70
2022-10-06T00:18:45.711Z,88.10
2022-10-06T00:21:14.288Z,87.50
2022-10-06T00:23:41.954Z,87.60
2022-10-06T00:26:17.626Z,87.70
2022-10-06T00:28:48.156Z,87.90
2022-10-06T00:31:17.439Z,88.10
2022-10-06T00:33:45.526Z,88.10
2022-10-06T00:36:12.924Z,88.30
2022-10-06T00:38:40.155Z,88.40
2022-10-06T00:41:07.505Z,88.50
2022-10-06T00:43:57.301Z,88.80
2022-10-06T00:46:47.341Z,88.80
2022-10-06T00:49:34.148Z,89.00
2022-10-06T00:52:09.045Z,89.00
2022-10-06T00:54:37.281Z,89.20
2022-10-06T00:57:06.232Z,89.30
2022-10-06T00:59:35.375Z,89.40
2022-10-06T01:02:26.469Z,89.50
2022-10-06T01:05:00.758Z,89.50
2022-10-06T01:07:30.482Z,89.60
2022-10-06T01:10:00.610Z,89.80
2022-10-06T01:12:30.932Z,89.90
2022-10-06T01:14:58.326Z,90.00
2022-10-06T01:17:52.682Z,90.10
2022-10-06T01:20:22.207Z,90.10
2022-10-06T01:22:57.454Z,90.20
2022-10-06T01:25:25.045Z,90.30
2022-10-06T01:27:55.782Z,90.40
2022-10-06T01:30:54.838Z,90.50
2022-10-06T01:33:22.748Z,90.50
2022-10-06T01:35:52.958Z,90.60
2022-10-06T01:38:22.013Z,90.60
2022-10-06T01:40:52.945Z,90.70
2022-10-06T01:43:20.657Z,90.80
2022-10-06T01:45:57.097Z,90.80
2022-10-06T01:48:25.994Z,90.90
2022-10-06T01:50:55.246Z,91.00
2022-10-06T01:53:23.149Z,91.10
2022-10-06T01:55:52.027Z,91.10
2022-10-06T01:58:19.360Z,91.20
2022-10-06T02:00:46.855Z,91.40
2022-10-06T02:03:14.199Z,91.30
2022-10-06T02:05:41.384Z,91.30
2022-10-06T02:08:09.807Z,91.30
2022-10-06T02:10:37.046Z,91.40
2022-10-06T02:13:04.951Z,91.30
2022-10-06T02:15:33.577Z,91.30
2022-10-06T02:18:00.757Z,91.40
2022-10-06T02:20:28.262Z,91.40
2022-10-06T02:22:55.599Z,91.30
2022-10-06T02:25:22.796Z,91.40
2022-10-06T02:27:50.084Z,91.50
2022-10-06T02:30:17.569Z,91.50
2022-10-06T02:32:44.870Z,91.60
2022-10-06T02:35:12.922Z,91.70
2022-10-06T02:37:42.186Z,91.70
2022-10-06T02:40:10.427Z,91.70
2022-10-06T02:42:38.451Z,91.80
2022-10-06T02:45:07.341Z,91.90
2022-10-06T02:47:36.587Z,91.90
2022-10-06T02:50:08.108Z,91.90
2022-10-06T02:52:41.143Z,92.10
2022-10-06T02:58:07.709Z,92.00
2022-10-06T03:00:34.956Z,92.10
2022-10-06T03:03:02.329Z,92.10
2022-10-06T03:05:30.480Z,92.30
2022-10-06T03:08:00.338Z,92.30
2022-10-06T03:10:27.511Z,92.40
2022-10-06T03:12:54.908Z,92.40
2022-10-06T03:15:22.109Z,92.40
2022-10-06T03:17:50.430Z,92.50
2022-10-06T03:20:17.646Z,92.60
2022-10-06T03:22:44.931Z,92.60
2022-10-06T03:25:12.277Z,92.60
2022-10-06T03:27:39.506Z,92.60
2022-10-06T03:30:08.066Z,92.70
2022-10-06T03:32:35.593Z,92.70
2022-10-06T03:35:04.736Z,92.70
2022-10-06T03:37:33.383Z,92.70
2022-10-06T03:40:01.310Z,92.70
2022-10-06T03:42:28.603Z,92.70
2022-10-06T03:44:55.832Z,92.70
2022-10-06T03:47:23.140Z,92.80
2022-10-06T03:49:52.341Z,92.80
2022-10-06T03:52:25.051Z,92.80
2022-10-06T03:54:53.262Z,92.70
2022-10-06T03:57:20.657Z,92.70
2022-10-06T03:59:47.906Z,92.70
2022-10-06T04:02:15.191Z,92.70
2022-10-06T04:04:42.541Z,92.70
2022-10-06T04:07:09.772Z,92.70
2022-10-06T04:09:38.935Z,92.70
2022-10-06T04:12:06.292Z,92.70
2022-10-06T04:14:33.599Z,92.70
2022-10-06T04:17:02.619Z,92.70
2022-10-06T04:19:29.844Z,92.70
2022-10-06T04:21:57.145Z,92.70
2022-10-06T04:24:24.690Z,92.70
2022-10-06T04:26:53.127Z,92.70
2022-10-06T04:29:21.239Z,92.70
2022-10-06T04:31:50.562Z,92.70
2022-10-06T04:34:18.231Z,92.70
2022-10-06T04:36:45.548Z,92.60
2022-10-06T04:39:13.443Z,92.60
2022-10-06T04:41:42.760Z,92.60
2022-10-06T04:44:10.523Z,92.50
2022-10-06T04:46:45.547Z,92.50
2022-10-06T04:49:19.566Z,92.50
2022-10-06T04:51:50.452Z,92.50
2022-10-06T04:54:19.352Z,92.40
2022-10-06T04:56:49.573Z,92.40
2022-10-06T04:59:17.223Z,92.30
2022-10-06T05:01:44.583Z,92.30
2022-10-06T05:04:11.789Z,92.30
2022-10-06T05:06:42.240Z,92.20
2022-10-06T05:09:15.838Z,92.30
2022-10-06T05:11:43.381Z,92.30
2022-10-06T05:14:10.741Z,92.20
2022-10-06T05:16:38.447Z,92.20
2022-10-06T05:19:08.306Z,92.10
2022-10-06T05:21:36.277Z,92.10
2022-10-06T05:24:05.069Z,92.10
2022-10-06T05:26:36.110Z,92.00
2022-10-06T05:29:04.428Z,92.00
2022-10-06T05:31:38.882Z,92.10
2022-10-06T05:34:07.333Z,92.00
2022-10-06T05:36:35.741Z,91.90
2022-10-06T05:39:04.111Z,91.80
2022-10-06T05:41:33.333Z,91.70
2022-10-06T05:44:02.197Z,91.60
2022-10-06T05:46:32.453Z,91.60
2022-10-06T05:49:10.551Z,91.60
2022-10-06T05:51:40.563Z,91.50
2022-10-06T05:54:08.536Z,91.50
2022-10-06T05:56:38.767Z,91.50
2022-10-06T05:59:07.068Z,91.50
2022-10-06T06:01:40.090Z,91.60
2022-10-06T06:04:10.946Z,91.60
2022-10-06T06:06:46.811Z,91.60
2022-10-06T06:09:17.926Z,91.60
2022-10-06T06:11:54.749Z,91.60
2022-10-06T06:14:41.638Z,91.60
2022-10-06T06:17:09.053Z,91.60
2022-10-06T06:19:36.329Z,91.60
2022-10-06T06:22:03.711Z,91.60
2022-10-06T06:24:30.933Z,91.60
2022-10-06T06:26:58.154Z,91.60
2022-10-06T06:29:25.603Z,91.60
2022-10-06T06:31:52.919Z,91.60
2022-10-06T06:34:20.102Z,91.70
2022-10-06T06:36:53.736Z,91.80
2022-10-06T06:39:21.623Z,91.80
2022-10-06T06:41:49.084Z,91.80
2022-10-06T06:44:16.910Z,91.80
2022-10-06T06:46:49.224Z,91.80
2022-10-06T06:49:20.163Z,91.80
2022-10-06T06:51:51.158Z,91.90
2022-10-06T06:54:18.764Z,91.80
2022-10-06T06:56:48.799Z,91.60
2022-10-06T06:59:17.408Z,91.30
2022-10-06T07:01:47.268Z,90.80
2022-10-06T07:04:17.175Z,90.70
2022-10-06T07:06:58.727Z,90.50
2022-10-06T07:09:26.901Z,90.40
2022-10-06T07:11:55.347Z,90.50
2022-10-06T07:14:24.243Z,90.00
2022-10-06T07:17:10.350Z,89.70
2022-10-06T07:19:40.606Z,89.70
2022-10-06T07:22:37.218Z,89.50
2022-10-06T07:25:15.409Z,89.20
2022-10-06T07:27:51.615Z,89.30
2022-10-06T07:30:22.934Z,89.20
2022-10-06T07:32:52.364Z,88.60
2022-10-06T07:35:22.944Z,87.70
2022-10-06T07:37:53.320Z,87.30
2022-10-06T07:40:20.634Z,86.60
2022-10-06T07:42:53.571Z,85.40
2022-10-06T07:45:39.711Z,84.70
2022-10-06T07:48:22.240Z,84.30
2022-10-06T07:50:52.473Z,83.30
2022-10-06T07:53:20.136Z,82.90
2022-10-06T07:55:48.108Z,82.70
2022-10-06T07:58:26.692Z,82.40
2022-10-06T08:00:54.676Z,82.20
2022-10-06T08:03:22.312Z,81.80
2022-10-06T08:05:58.631Z,81.30
2022-10-06T08:08:26.783Z,80.90
2022-10-06T08:10:58.321Z,80.50
2022-10-06T08:13:27.818Z,80.10
2022-10-06T08:15:56.595Z,79.50
2022-10-06T08:18:45.562Z,79.20
2022-10-06T08:21:19.966Z,78.60
2022-10-06T08:23:49.730Z,78.40
2022-10-06T08:26:20.023Z,77.80
2022-10-06T08:28:50.997Z,77.50
2022-10-06T08:31:21.709Z,77.00
2022-10-06T08:33:53.358Z,76.60
2022-10-06T08:36:21.268Z,76.20
2022-10-06T08:38:50.546Z,75.80
2022-10-06T08:41:46.724Z,75.50
2022-10-06T08:44:18.610Z,75.40
2022-10-06T08:47:02.368Z,75.20
2022-10-06T08:49:45.299Z,74.90
2022-10-06T08:53:15.653Z,74.60
2022-10-06T08:55:54.620Z,74.30
2022-10-06T08:58:42.188Z,73.70
2022-10-06T09:01:19.729Z,73.60
2022-10-06T09:03:52.068Z,73.30
2022-10-06T09:06:34.316Z,73.10
2022-10-06T09:09:33.522Z,73.00
2022-10-06T09:12:24.804Z,72.70
2022-10-06T09:15:03.162Z,72.40
2022-10-06T09:17:35.324Z,72.10
2022-10-06T09:20:21.255Z,71.90
2022-10-06T09:22:51.304Z,71.80
2022-10-06T09:25:26.762Z,71.10
2022-10-06T09:27:57.623Z,70.60
2022-10-06T09:30:26.047Z,70.20
2022-10-06T09:33:02.778Z,69.80
2022-10-06T09:35:32.732Z,69.50
2022-10-06T09:38:08.207Z,69.10
2022-10-06T09:40:51.182Z,68.90
2022-10-06T09:43:29.824Z,68.60
2022-10-06T09:46:21.415Z,68.30
2022-10-06T09:48:48.575Z,68.40
2022-10-06T09:51:17.990Z,68.50
2022-10-06T09:54:10.581Z,68.30
2022-10-06T09:56:47.301Z,68.10
2022-10-06T09:59:42.610Z,67.00
2022-10-06T10:02:22.890Z,67.90
2022-10-06T10:04:54.575Z,67.60
2022-10-06T10:07:25.040Z,68.00
2022-10-06T10:10:17.749Z,67.10
2022-10-06T10:12:53.235Z,67.50
2022-10-06T10:15:20.392Z,67.10
2022-10-06T10:17:51.669Z,66.70
2022-10-06T10:20:24.877Z,67.40
2022-10-06T10:22:53.672Z,66.30
2022-10-06T10:25:35.954Z,65.60
2022-10-06T10:28:15.802Z,66.70
2022-10-06T10:31:18.943Z,66.50
2022-10-06T10:34:11.979Z,66.10
2022-10-06T10:37:12.305Z,66.70
2022-10-06T10:39:39.479Z,66.40
2022-10-06T10:42:18.020Z,65.90
2022-10-06T10:45:15.179Z,65.20
2022-10-06T10:47:45.385Z,65.70
2022-10-06T10:50:24.670Z,65.60
2022-10-06T10:52:56.132Z,65.40
2022-10-06T10:55:42.877Z,65.90
2022-10-06T10:58:43.892Z,65.80
2022-10-06T11:01:32.733Z,64.80
2022-10-06T11:04:01.034Z,63.30
2022-10-06T11:06:38.997Z,62.50
2022-10-06T11:09:42.788Z,61.80
2022-10-06T11:13:18.143Z,60.70
2022-10-06T11:16:08.925Z,61.00
2022-10-06T11:19:18.356Z,61.50
2022-10-06T11:22:32.580Z,61.40
2022-10-06T11:25:29.098Z,61.20
2022-10-06T11:28:13.742Z,61.90
2022-10-06T11:31:22.780Z,61.90
2022-10-06T11:33:58.468Z,61.50
2022-10-06T11:37:11.814Z,62.10
2022-10-06T11:40:14.239Z,62.00
2022-10-06T11:43:10.041Z,62.10
2022-10-06T11:46:21.983Z,61.90
2022-10-06T11:48:49.358Z,61.30
2022-10-06T11:51:25.378Z,61.50
2022-10-06T11:53:53.230Z,61.60
2022-10-06T11:56:20.478Z,61.50
2022-10-06T11:58:56.826Z,61.60
2022-10-06T12:01:33.944Z,62.00
2022-10-06T12:04:08.645Z,61.30
2022-10-06T12:06:45.751Z,61.50
2022-10-06T12:09:46.224Z,61.40
2022-10-06T12:12:19.667Z,61.50
2022-10-06T12:18:42.257Z,61.60
2022-10-06T12:21:54.049Z,61.50
2022-10-06T12:24:41.416Z,61.40
2022-10-06T12:27:39.081Z,61.40
2022-10-06T12:30:28.830Z,61.30
2022-10-06T12:33:05.287Z,61.30
2022-10-06T12:35:40.174Z,60.70
2022-10-06T12:38:33.723Z,60.90
2022-10-06T12:41:01.778Z,60.80
2022-10-06T12:43:54.702Z,60.90
2022-10-06T12:46:36.930Z,60.40
2022-10-06T12:49:26.615Z,60.70
2022-10-06T12:51:58.982Z,60.40
2022-10-06T12:55:07.982Z,60.80
2022-10-06T12:57:53.450Z,61.20
2022-10-06T13:00:42.455Z,61.20
2022-10-06T13:03:25.021Z,61.30
2022-10-06T13:05:57.463Z,61.30
2022-10-06T13:08:32.368Z,61.20
2022-10-06T13:11:11.753Z,61.00
2022-10-06T13:13:48.668Z,60.70
2022-10-06T13:16:21.635Z,60.70
2022-10-06T13:18:55.146Z,60.60
2022-10-06T13:21:23.216Z,60.60
2022-10-06T13:23:52.204Z,60.50
2022-10-06T13:26:25.605Z,60.30
2022-10-06T13:28:56.639Z,60.10
2022-10-06T13:31:28.832Z,60.20
2022-10-06T13:34:02.561Z,60.50
2022-10-06T13:36:33.792Z,60.10
2022-10-06T13:39:12.451Z,59.70
2022-10-06T13:42:17.846Z,59.90
2022-10-06T13:44:54.810Z,59.80
2022-10-06T13:47:27.112Z,59.50
2022-10-06T13:50:15.999Z,59.50
2022-10-06T13:52:48.974Z,59.50
2022-10-06T13:55:28.753Z,59.60
2022-10-06T13:58:03.293Z,59.60
2022-10-06T14:00:47.478Z,59.70
2022-10-06T14:03:28.654Z,59.60
2022-10-06T14:06:22.342Z,59.60
2022-10-06T14:08:55.292Z,59.80
2022-10-06T14:11:29.817Z,59.60
2022-10-06T14:14:03.965Z,59.10
2022-10-06T14:16:31.905Z,59.40
2022-10-06T14:19:05.789Z,59.30
2022-10-06T14:21:36.878Z,59.30
2022-10-06T14:24:16.301Z,59.30
2022-10-06T14:26:46.103Z,59.20
2022-10-06T14:29:14.341Z,59.30
2022-10-06T14:31:42.315Z,59.50
2022-10-06T14:34:17.198Z,59.60
2022-10-06T14:36:55.226Z,60.50
2022-10-06T14:39:22.765Z,60.00
2022-10-06T14:41:50.265Z,60.80
2022-10-06T14:44:17.526Z,60.00
2022-10-06T14:46:48.324Z,60.00
2022-10-06T14:49:16.141Z,60.00
2022-10-06T14:51:44.852Z,60.00
2022-10-06T14:54:12.949Z,60.10
2022-10-06T14:56:41.586Z,60.20
2022-10-06T14:59:16.732Z,60.40
2022-10-06T15:01:45.804Z,60.70
2022-10-06T15:04:19.664Z,60.60
2022-10-06T15:07:06.546Z,60.60
2022-10-06T15:09:33.854Z,60.60
2022-10-06T15:12:01.508Z,60.80
2022-10-06T15:14:29.672Z,61.00
2022-10-06T15:17:01.343Z,61.30
2022-10-06T15:19:28.959Z,61.30
2022-10-06T15:21:56.348Z,61.20
2022-10-06T15:24:23.574Z,61.40
2022-10-06T15:27:14.058Z,61.40
2022-10-06T15:29:42.411Z,61.60
2022-10-06T15:32:09.634Z,61.90
2022-10-06T15:34:37.816Z,62.00
2022-10-06T15:37:06.398Z,62.60
2022-10-06T15:39:36.414Z,62.70
2022-10-06T15:42:04.703Z,62.90
2022-10-06T15:44:34.666Z,63.40
2022-10-06T15:47:05.859Z,64.40
2022-10-06T15:49:38.077Z,65.50
2022-10-06T15:52:06.883Z,66.50
2022-10-06T15:54:37.949Z,67.50
2022-10-06T15:57:09.890Z,68.20
2022-10-06T15:59:40.061Z,69.10
2022-10-06T16:02:14.968Z,69.80
2022-10-06T16:04:44.354Z,70.40
2022-10-06T16:07:14.401Z,71.10
2022-10-06T16:09:45.908Z,71.60
2022-10-06T16:12:17.850Z,72.30
2022-10-06T16:14:46.011Z,72.70
2022-10-06T16:17:15.225Z,73.30
2022-10-06T16:19:43.965Z,73.60
2022-10-06T16:22:19.519Z,74.00
2022-10-06T16:24:46.949Z,74.50
2022-10-06T16:27:16.068Z,74.80
2022-10-06T16:29:43.645Z,75.20
2022-10-06T16:32:10.919Z,75.60
2022-10-06T16:34:38.105Z,75.90
2022-10-06T16:37:05.461Z,76.40
2022-10-06T16:39:32.840Z,76.80
2022-10-06T16:42:00.192Z,76.90
2022-10-06T16:44:27.432Z,77.30
2022-10-06T16:46:54.931Z,77.60
2022-10-06T16:49:24.477Z,77.80
2022-10-06T16:51:51.832Z,78.20
2022-10-06T16:54:19.328Z,78.60
2022-10-06T16:56:52.087Z,78.90
2022-10-06T16:59:23.248Z,79.10
2022-10-06T17:01:51.212Z,79.20
2022-10-06T17:04:21.846Z,79.50
2022-10-06T17:06:52.752Z,79.70
2022-10-06T17:09:27.060Z,80.00
2022-10-06T17:12:03.836Z,80.30
2022-10-06T17:14:33.319Z,80.60
2022-10-06T17:17:01.593Z,80.90
2022-10-06T17:19:30.274Z,81.10
2022-10-06T17:21:59.441Z,81.40
2022-10-06T17:24:29.209Z,81.40
2022-10-06T17:26:58.166Z,81.00
2022-10-06T17:29:26.419Z,81.70
2022-10-06T17:31:59.055Z,82.10
2022-10-06T17:34:31.765Z,82.50
2022-10-06T17:37:01.305Z,82.70
2022-10-06T17:39:28.560Z,83.10
2022-10-06T17:41:56.222Z,83.40
2022-10-06T17:44:28.357Z,83.80
2022-10-06T17:47:00.262Z,84.10
2022-10-06T17:49:32.737Z,84.30
2022-10-06T17:52:00.908Z,84.50
2022-10-06T17:54:28.893Z,84.70
2022-10-06T17:56:59.168Z,84.90
2022-10-06T17:59:31.786Z,85.80
2022-10-06T18:02:02.871Z,85.30
2022-10-06T18:04:32.052Z,85.40
2022-10-06T18:07:00.215Z,85.40
2022-10-06T18:09:27.637Z,85.90
2022-10-06T18:11:56.279Z,86.00
2022-10-06T18:14:34.933Z,86.30
2022-10-06T18:17:04.066Z,86.60
2022-10-06T18:19:34.941Z,86.70
2022-10-06T18:22:10.425Z,86.90
2022-10-06T18:24:39.982Z,87.10
2022-10-06T18:27:08.383Z,87.50
2022-10-06T18:29:38.388Z,87.70
2022-10-06T18:37:42.391Z,88.10
2022-10-06T18:40:11.391Z,88.30
2022-10-06T18:42:40.827Z,88.60
2022-10-06T18:45:29.664Z,88.90
2022-10-06T18:48:15.753Z,89.30
2022-10-06T18:50:43.522Z,89.50
2022-10-06T18:53:10.880Z,89.90
2022-10-06T18:55:38.116Z,90.00
2022-10-06T18:58:05.399Z,90.10
2022-10-06T19:00:33.406Z,90.20
2022-10-06T19:03:00.914Z,90.30
2022-10-06T19:05:28.184Z,90.40
2022-10-06T19:07:55.849Z,90.40
2022-10-06T19:10:23.141Z,90.50
2022-10-06T19:12:54.556Z,90.70
2022-10-06T19:15:22.974Z,90.70
2022-10-06T19:17:50.223Z,90.80
2022-10-06T19:20:18.701Z,91.00
2022-10-06T19:22:47.716Z,90.90
2022-10-06T19:25:18.924Z,91.00
2022-10-06T19:27:46.849Z,91.10
2022-10-06T19:30:14.909Z,91.20
2022-10-06T19:32:42.436Z,91.30
2022-10-06T19:35:10.826Z,91.40
2022-10-06T19:37:39.613Z,91.50
2022-10-06T19:40:11.245Z,91.60
2022-10-06T19:42:48.110Z,91.70
2022-10-06T19:45:20.027Z,91.80
2022-10-06T19:47:47.614Z,91.90
2022-10-06T19:50:17.516Z,92.00
2022-10-06T19:52:45.627Z,92.00
2022-10-06T19:55:12.994Z,92.10
2022-10-06T19:57:40.513Z,92.10
2022-10-06T20:00:10.295Z,92.30
2022-10-06T20:02:42.516Z,92.40
2022-10-06T20:05:13.356Z,92.40
2022-10-06T20:07:45.377Z,92.50
2022-10-06T20:10:15.012Z,92.60
2022-10-06T20:12:42.575Z,92.70
2022-10-06T20:15:11.182Z,92.80
2022-10-06T20:17:39.365Z,92.90
2022-10-06T20:20:09.427Z,93.10
2022-10-06T20:22:37.794Z,93.20
2022-10-06T20:25:07.202Z,93.30
2022-10-06T20:27:34.587Z,93.30
2022-10-06T20:30:02.083Z,93.40
2022-10-06T20:32:29.559Z,93.50
2022-10-06T20:34:58.176Z,93.50
2022-10-06T20:37:25.635Z,93.60
2022-10-06T20:40:11.684Z,93.70
2022-10-06T20:42:41.446Z,93.80
2022-10-06T20:45:09.356Z,93.90
2022-10-06T20:47:37.067Z,94.00
2022-10-06T20:50:04.731Z,94.00
2022-10-06T20:52:32.083Z,94.00
2022-10-06T20:54:59.410Z,94.00
2022-10-06T20:57:33.524Z,94.10
2022-10-06T21:00:01.245Z,94.10
2022-10-06T21:02:28.654Z,94.20
2022-10-06T21:04:57.646Z,94.20
2022-10-06T21:07:25.008Z,94.50
2022-10-06T21:09:52.518Z,94.20
2022-10-06T21:12:20.328Z,94.30
2022-10-06T21:14:48.084Z,94.30
2022-10-06T21:17:15.556Z,94.30
2022-10-06T21:19:42.998Z,94.60
2022-10-06T21:22:11.470Z,94.40
2022-10-06T21:24:38.923Z,94.40
2022-10-06T21:27:06.421Z,94.40
2022-10-06T21:29:33.947Z,94.50
2022-10-06T21:32:01.240Z,94.70
2022-10-06T21:34:28.636Z,94.80
2022-10-06T21:36:56.171Z,94.90
2022-10-06T21:39:24.432Z,94.90
2022-10-06T21:41:51.669Z,94.80
2022-10-06T21:44:19.363Z,94.80
2022-10-06T21:46:53.127Z,94.90
2022-10-06T21:49:23.854Z,94.90
2022-10-06T21:51:54.527Z,95.00
2022-10-06T21:54:23.609Z,95.00
2022-10-06T21:56:52.761Z,95.10
2022-10-06T21:59:20.117Z,95.10
2022-10-06T22:01:50.461Z,95.20
2022-10-06T22:04:18.715Z,95.30
2022-10-06T22:06:49.930Z,95.40
2022-10-06T22:09:19.201Z,95.40
2022-10-06T22:11:46.583Z,95.40
2022-10-06T22:14:16.104Z,95.50
2022-10-06T22:16:43.862Z,95.40
2022-10-06T22:19:13.806Z,95.50
2022-10-06T22:21:44.947Z,95.40
2022-10-06T22:24:19.785Z,95.40
2022-10-06T22:26:48.901Z,95.50
2022-10-06T22:29:19.217Z,95.70
2022-10-06T22:31:48.362Z,95.80
2022-10-06T22:34:19.488Z,95.80
2022-10-06T22:36:47.085Z,95.90
2022-10-06T22:39:14.489Z,96.00
2022-10-06T22:41:42.563Z,96.00
2022-10-06T22:44:09.941Z,96.10
2022-10-06T22:46:38.190Z,96.10
2022-10-06T22:49:06.374Z,96.20
2022-10-06T22:51:33.891Z,96.20
2022-10-06T22:54:02.066Z,96.60
2022-10-06T22:56:32.726Z,96.30
2022-10-06T22:59:00.803Z,96.40
2022-10-06T23:01:30.037Z,96.50
2022-10-06T23:03:58.291Z,96.50
2022-10-06T23:06:26.759Z,96.60
2022-10-06T23:08:54.012Z,96.60
2022-10-06T23:11:23.000Z,96.70
2022-10-06T23:13:52.911Z,96.70
2022-10-06T23:16:21.260Z,96.80
2022-10-06T23:18:49.151Z,96.90
2022-10-06T23:21:22.975Z,97.00
2022-10-06T23:23:58.736Z,97.10
2022-10-06T23:26:27.288Z,97.20
2022-10-06T23:29:00.849Z,97.30
2022-10-06T23:31:29.387Z,97.40
2022-10-06T23:33:57.384Z,97.40
2022-10-06T23:36:24.981Z,97.50
2022-10-06T23:38:52.332Z,97.60
2022-10-06T23:41:20.404Z,97.60
2022-10-06T23:43:47.938Z,97.70
2022-10-06T23:46:15.496Z,97.80
2022-10-06T23:48:43.462Z,97.80
2022-10-06T23:51:15.365Z,97.90
2022-10-06T23:53:43.720Z,98.00
2022-10-06T23:56:11.965Z,98.10
2022-10-06T23:58:39.447Z,98.20
